Temp: 12.1°C   Baro: 1005.1mb
  Wind: 10.1mph   Dir: WSW (252°)
  Rain: 7.6mm (0.0mm/hr)
  Solar: 49W/m2  Hum: 89%
 
Bath Spa Weather Historical Data
Daily Summary for January 20, 2020 Units:  Both    English   Metric
Next Day »
Daily Weekly Monthly Yearly Custom
  High: Low: Average:
Temperature: 46.6 °F /  8.1 °C 29.7 °F /  -1.3 °C 35.6 °F /  2 °C
Dew Point: 39.9 °F /  4.4 °C 28.2 °F /  -2.1 °C 32.9 °F /  0.5 °C
Humidity: 95% 76% 90%
Wind Speed: 8.1mph /  13.0km/h - 0.8mph /  1.3km/h
Wind Gust: 8mph /  12.9km/h - -
Wind direction- - WNW
Pressure: 31 in /  1049.7 hPa 30.9 in /  1044.9 hPa -
Precipitation: 0.01 in /  0.3 mm    
Historical Graphs
 
 
Tabular Data for January 20, 2020
Time Temperature Dew Point Pressure Wind direction Wind Speed Wind Gust Humidity Rainfall Rate (Hourly) solar
00:00 32.4 °F /  0.2 °C 30.6 °F /  -0.8 °C 31in /  1049.0hPa Calm     93% 0in /  0.0mm 0.00 W/m2
00:05 32.5 °F /  0.3 °C 30.7 °F /  -0.7 °C 31in /  1049.0hPa Calm   1mph /  1.6km/h 93% 0in /  0.0mm 0.00 W/m2
00:10 32.4 °F /  0.2 °C 30.6 °F /  -0.8 °C 31in /  1049.3hPa NW 0.9mph /  1.4km/h 2mph /  3.2km/h 93% 0in /  0.0mm 0.00 W/m2
00:15 32.4 °F /  0.2 °C 30.6 °F /  -0.8 °C 31in /  1049.3hPa NW 0.9mph /  1.4km/h 1mph /  1.6km/h 93% 0in /  0.0mm 0.00 W/m2
00:20 32.5 °F /  0.3 °C 30.7 °F /  -0.7 °C 31in /  1049.3hPa NW 0.9mph /  1.4km/h 1mph /  1.6km/h 93% 0in /  0.0mm 0.00 W/m2
00:25 32.5 °F /  0.3 °C 30.7 °F /  -0.7 °C 31in /  1049.3hPa Calm   1mph /  1.6km/h 93% 0in /  0.0mm 0.00 W/m2
00:30 32.5 °F /  0.3 °C 30.7 °F /  -0.7 °C 31in /  1049.3hPa Calm     93% 0in /  0.0mm 0.00 W/m2
00:35 32.5 °F /  0.3 °C 30.7 °F /  -0.7 °C 31in /  1049.3hPa Calm   1mph /  1.6km/h 93% 0in /  0.0mm 0.00 W/m2
00:40 32.7 °F /  0.4 °C 30.9 °F /  -0.6 °C 31in /  1049.3hPa Calm   1mph /  1.6km/h 93% 0in /  0.0mm 0.00 W/m2
00:45 32.7 °F /  0.4 °C 30.9 °F /  -0.6 °C 31in /  1049.3hPa Calm   1mph /  1.6km/h 93% 0in /  0.0mm 0.00 W/m2
00:50 32.9 °F /  0.5 °C 31.1 °F /  -0.5 °C 31in /  1049.3hPa Calm     93% 0in /  0.0mm 0.00 W/m2
00:55 32.9 °F /  0.5 °C 31.1 °F /  -0.5 °C 31in /  1049.3hPa Calm     93% 0in /  0.0mm 0.00 W/m2
01:00 32.9 °F /  0.5 °C 31.1 °F /  -0.5 °C 31in /  1049.3hPa Calm   1mph /  1.6km/h 93% 0in /  0.0mm 0.00 W/m2
01:05 32.9 °F /  0.5 °C 31.1 °F /  -0.5 °C 31in /  1049.3hPa Calm     93% 0in /  0.0mm 0.00 W/m2
01:10 33.1 °F /  0.6 °C 31.3 °F /  -0.4 °C 31in /  1049.3hPa NW 0.9mph /  1.4km/h 1mph /  1.6km/h 93% 0in /  0.0mm 0.00 W/m2
01:15 32.7 °F /  0.4 °C 30.9 °F /  -0.6 °C 31in /  1049.3hPa NW 0.9mph /  1.4km/h 1mph /  1.6km/h 93% 0in /  0.0mm 0.00 W/m2
01:20 32.7 °F /  0.4 °C 30.9 °F /  -0.6 °C 31in /  1049.3hPa Calm   1mph /  1.6km/h 93% 0in /  0.0mm 0.00 W/m2
01:25 32.5 °F /  0.3 °C 30.7 °F /  -0.7 °C 31in /  1049.3hPa Calm     93% 0in /  0.0mm 0.00 W/m2
01:30 32.5 °F /  0.3 °C 30.7 °F /  -0.7 °C 31in /  1049.3hPa Calm     93% 0in /  0.0mm 0.00 W/m2
01:35 32.5 °F /  0.3 °C 30.7 °F /  -0.7 °C 31in /  1049.3hPa Calm     93% 0in /  0.0mm 0.00 W/m2
01:40 32.7 °F /  0.4 °C 31.1 °F /  -0.5 °C 31in /  1049.3hPa Calm     94% 0in /  0.0mm 0.00 W/m2
01:45 32.5 °F /  0.3 °C 30.9 °F /  -0.6 °C 31in /  1049.3hPa Calm   1mph /  1.6km/h 94% 0in /  0.0mm 0.00 W/m2
01:50 32.5 °F /  0.3 °C 30.9 °F /  -0.6 °C 31in /  1049.3hPa Calm   1mph /  1.6km/h 94% 0in /  0.0mm 0.00 W/m2
01:55 32.4 °F /  0.2 °C 30.6 °F /  -0.8 °C 31in /  1049.3hPa NW 0.9mph /  1.4km/h 1mph /  1.6km/h 93% 0in /  0.0mm 0.00 W/m2
02:00 32.2 °F /  0.1 °C 30.4 °F /  -0.9 °C 31in /  1049.3hPa Calm   1mph /  1.6km/h 93% 0in /  0.0mm 0.00 W/m2
02:05 32.2 °F /  0.1 °C 30.4 °F /  -0.9 °C 31in /  1049.3hPa Calm     93% 0in /  0.0mm 0.00 W/m2
02:10 31.8 °F /  -0.1 °C 30.4 °F /  -0.9 °C 31in /  1049.7hPa Calm     94% 0in /  0.0mm 0.00 W/m2
02:15 31.6 °F /  -0.2 °C 30.2 °F /  -1.0 °C 31in /  1049.3hPa Calm     94% 0in /  0.0mm 0.00 W/m2
02:20 31.6 °F /  -0.2 °C 29.8 °F /  -1.2 °C 31in /  1049.3hPa Calm     93% 0in /  0.0mm 0.00 W/m2
02:25 31.6 °F /  -0.2 °C 29.8 °F /  -1.2 °C 31in /  1049.3hPa Calm     93% 0in /  0.0mm 0.00 W/m2
02:30 31.5 °F /  -0.3 °C 29.7 °F /  -1.3 °C 31in /  1049.3hPa Calm     93% 0in /  0.0mm 0.00 W/m2
02:35 31.5 °F /  -0.3 °C 30 °F /  -1.1 °C 31in /  1049.3hPa Calm     94% 0in /  0.0mm 0.00 W/m2
02:40 31.5 °F /  -0.3 °C 30 °F /  -1.1 °C 31in /  1049.0hPa Calm   1mph /  1.6km/h 94% 0in /  0.0mm 0.00 W/m2
02:45 31.3 °F /  -0.4 °C 29.8 °F /  -1.2 °C 31in /  1048.6hPa Calm     94% 0in /  0.0mm 0.00 W/m2
02:50 31.1 °F /  -0.5 °C 29.7 °F /  -1.3 °C 31in /  1048.6hPa NW 0.9mph /  1.4km/h 2mph /  3.2km/h 94% 0in /  0.0mm 0.00 W/m2
02:55 31.1 °F /  -0.5 °C 29.7 °F /  -1.3 °C 31in /  1048.6hPa NW 0.9mph /  1.4km/h 1mph /  1.6km/h 94% 0in /  0.0mm 0.00 W/m2
03:00 31.1 °F /  -0.5 °C 29.7 °F /  -1.3 °C 31in /  1048.6hPa NW 0.9mph /  1.4km/h 1mph /  1.6km/h 94% 0in /  0.0mm 0.00 W/m2
03:05 30.9 °F /  -0.6 °C 29.5 °F /  -1.4 °C 31in /  1048.6hPa Calm   1mph /  1.6km/h 94% 0in /  0.0mm 0.00 W/m2
03:10 30.9 °F /  -0.6 °C 29.5 °F /  -1.4 °C 31in /  1048.6hPa Calm   1mph /  1.6km/h 94% 0in /  0.0mm 0.00 W/m2
03:15 30.7 °F /  -0.7 °C 29.3 °F /  -1.5 °C 31in /  1048.6hPa Calm   1mph /  1.6km/h 94% 0in /  0.0mm 0.00 W/m2
03:20 30.7 °F /  -0.7 °C 29.3 °F /  -1.5 °C 31in /  1048.6hPa Calm   1mph /  1.6km/h 94% 0in /  0.0mm 0.00 W/m2
03:25 30.6 °F /  -0.8 °C 29.1 °F /  -1.6 °C 31in /  1048.6hPa NW 0.9mph /  1.4km/h 2mph /  3.2km/h 94% 0in /  0.0mm 0.00 W/m2
03:30 30.6 °F /  -0.8 °C 29.1 °F /  -1.6 °C 31in /  1048.6hPa Calm     94% 0in /  0.0mm 0.00 W/m2
03:35 30.6 °F /  -0.8 °C 29.1 °F /  -1.6 °C 31in /  1048.6hPa Calm     94% 0in /  0.0mm 0.00 W/m2
03:40 30.6 °F /  -0.8 °C 29.1 °F /  -1.6 °C 31in /  1049.0hPa Calm   2mph /  3.2km/h 94% 0in /  0.0mm 0.00 W/m2
03:45 30.7 °F /  -0.7 °C 29.3 °F /  -1.5 °C 31in /  1048.6hPa Calm     94% 0in /  0.0mm 0.00 W/m2
03:50 30.7 °F /  -0.7 °C 29.3 °F /  -1.5 °C 31in /  1048.6hPa Calm   1mph /  1.6km/h 94% 0in /  0.0mm 0.00 W/m2
03:55 30.6 °F /  -0.8 °C 29.1 °F /  -1.6 °C 31in /  1048.6hPa Calm     94% 0in /  0.0mm 0.00 W/m2
04:00 30.6 °F /  -0.8 °C 29.1 °F /  -1.6 °C 31in /  1048.6hPa Calm   1mph /  1.6km/h 94% 0in /  0.0mm 0.00 W/m2
04:05 30.6 °F /  -0.8 °C 29.1 °F /  -1.6 °C 31in /  1048.6hPa Calm   1mph /  1.6km/h 94% 0in /  0.0mm 0.00 W/m2
04:10 30.6 °F /  -0.8 °C 29.1 °F /  -1.6 °C 31in /  1048.6hPa Calm     94% 0in /  0.0mm 0.00 W/m2
04:15 30.6 °F /  -0.8 °C 29.1 °F /  -1.6 °C 31in /  1048.6hPa Calm   1mph /  1.6km/h 94% 0in /  0.0mm 0.00 W/m2
04:20 30.4 °F /  -0.9 °C 28.9 °F /  -1.7 °C 31in /  1048.6hPa Calm   1mph /  1.6km/h 94% 0in /  0.0mm 0.00 W/m2
04:25 30.4 °F /  -0.9 °C 28.9 °F /  -1.7 °C 31in /  1048.6hPa Calm     94% 0in /  0.0mm 0.00 W/m2
04:30 30.4 °F /  -0.9 °C 28.9 °F /  -1.7 °C 31in /  1048.6hPa Calm     94% 0in /  0.0mm 0.00 W/m2
04:35 30 °F /  -1.1 °C 28.6 °F /  -1.9 °C 31in /  1048.6hPa Calm     94% 0in /  0.0mm 0.00 W/m2
04:40 30.2 °F /  -1.0 °C 28.8 °F /  -1.8 °C 31in /  1048.6hPa Calm   1mph /  1.6km/h 94% 0in /  0.0mm 0.00 W/m2
04:45 30.2 °F /  -1.0 °C 28.8 °F /  -1.8 °C 31in /  1048.6hPa Calm     94% 0in /  0.0mm 0.00 W/m2
04:50 30.2 °F /  -1.0 °C 28.8 °F /  -1.8 °C 31in /  1048.6hPa Calm     94% 0in /  0.0mm 0.00 W/m2
04:55 30 °F /  -1.1 °C 28.6 °F /  -1.9 °C 31in /  1048.6hPa Calm     94% 0in /  0.0mm 0.00 W/m2
05:00 30 °F /  -1.1 °C 28.6 °F /  -1.9 °C 31in /  1048.6hPa Calm     94% 0in /  0.0mm 0.00 W/m2
05:05 29.8 °F /  -1.2 °C 28.4 °F /  -2.0 °C 31in /  1048.6hPa Calm   1mph /  1.6km/h 94% 0in /  0.0mm 0.00 W/m2
05:10 29.8 °F /  -1.2 °C 28.4 °F /  -2.0 °C 31in /  1048.6hPa Calm   1mph /  1.6km/h 94% 0in /  0.0mm 0.00 W/m2
05:15 29.8 °F /  -1.2 °C 28.4 °F /  -2.0 °C 31in /  1048.6hPa Calm     94% 0in /  0.0mm 0.00 W/m2
05:20 30 °F /  -1.1 °C 28.6 °F /  -1.9 °C 31in /  1048.6hPa Calm     94% 0in /  0.0mm 0.00 W/m2
05:25 30 °F /  -1.1 °C 28.6 °F /  -1.9 °C 31in /  1048.6hPa Calm     94% 0in /  0.0mm 0.00 W/m2
05:30 29.8 °F /  -1.2 °C 28.4 °F /  -2.0 °C 31in /  1048.6hPa Calm     94% 0in /  0.0mm 0.00 W/m2
05:35 29.8 °F /  -1.2 °C 28.4 °F /  -2.0 °C 31in /  1048.6hPa Calm   1mph /  1.6km/h 94% 0in /  0.0mm 0.00 W/m2
05:40 29.8 °F /  -1.2 °C 28.4 °F /  -2.0 °C 31in /  1048.6hPa Calm     94% 0in /  0.0mm 0.00 W/m2
05:45 29.8 °F /  -1.2 °C 28.4 °F /  -2.0 °C 31in /  1048.6hPa Calm   1mph /  1.6km/h 94% 0in /  0.0mm 0.00 W/m2
05:50 30 °F /  -1.1 °C 28.6 °F /  -1.9 °C 31in /  1049.0hPa NW 0.9mph /  1.4km/h 2mph /  3.2km/h 94% 0in /  0.0mm 0.00 W/m2
05:55 30 °F /  -1.1 °C 28.6 °F /  -1.9 °C 31in /  1048.6hPa Calm   2mph /  3.2km/h 94% 0in /  0.0mm 0.00 W/m2
06:00 30 °F /  -1.1 °C 28.6 °F /  -1.9 °C 31in /  1049.0hPa Calm     94% 0in /  0.0mm 0.00 W/m2
06:05 29.8 °F /  -1.2 °C 28.4 °F /  -2.0 °C 31in /  1049.0hPa Calm     94% 0in /  0.0mm 0.00 W/m2
06:10 30 °F /  -1.1 °C 28.6 °F /  -1.9 °C 31in /  1049.0hPa Calm   1mph /  1.6km/h 94% 0in /  0.0mm 0.00 W/m2
06:15 29.8 °F /  -1.2 °C 28.4 °F /  -2.0 °C 31in /  1049.0hPa Calm     94% 0in /  0.0mm 0.00 W/m2
06:20 29.8 °F /  -1.2 °C 28.4 °F /  -2.0 °C 31in /  1048.6hPa Calm     94% 0in /  0.0mm 0.00 W/m2
06:25 29.8 °F /  -1.2 °C 28.4 °F /  -2.0 °C 31in /  1049.0hPa Calm   1mph /  1.6km/h 94% 0in /  0.0mm 0.00 W/m2
06:31 29.8 °F /  -1.2 °C 28.4 °F /  -2.0 °C 31in /  1048.6hPa Calm     94% 0in /  0.0mm 0.00 W/m2
06:35 30 °F /  -1.1 °C 28.6 °F /  -1.9 °C 31in /  1048.6hPa Calm     94% 0in /  0.0mm 0.00 W/m2
06:40 29.8 °F /  -1.2 °C 28.4 °F /  -2.0 °C 31in /  1049.0hPa Calm     94% 0in /  0.0mm 0.00 W/m2
06:45 29.8 °F /  -1.2 °C 28.4 °F /  -2.0 °C 31in /  1049.0hPa NW 2mph /  3.2km/h 2mph /  3.2km/h 94% 0in /  0.0mm 0.00 W/m2
06:50 29.8 °F /  -1.2 °C 28.4 °F /  -2.0 °C 31in /  1049.0hPa NW 0.9mph /  1.4km/h 1mph /  1.6km/h 94% 0in /  0.0mm 0.00 W/m2
06:55 29.8 °F /  -1.2 °C 28.4 °F /  -2.0 °C 31in /  1049.0hPa Calm     94% 0in /  0.0mm 0.00 W/m2
07:00 29.8 °F /  -1.2 °C 28.4 °F /  -2.0 °C 31in /  1049.0hPa Calm     94% 0in /  0.0mm 0.00 W/m2
07:05 29.8 °F /  -1.2 °C 28.4 °F /  -2.0 °C 31in /  1049.0hPa Calm   1mph /  1.6km/h 94% 0in /  0.0mm 0.00 W/m2
07:10 29.8 °F /  -1.2 °C 28.4 °F /  -2.0 °C 31in /  1049.0hPa Calm     94% 0in /  0.0mm 0.00 W/m2
07:15 29.7 °F /  -1.3 °C 28.2 °F /  -2.1 °C 31in /  1049.0hPa Calm     94% 0in /  0.0mm 0.00 W/m2
07:20 29.7 °F /  -1.3 °C 28.2 °F /  -2.1 °C 31in /  1049.0hPa Calm     94% 0in /  0.0mm 0.00 W/m2
07:25 29.8 °F /  -1.2 °C 28.4 °F /  -2.0 °C 31in /  1049.0hPa Calm   1mph /  1.6km/h 94% 0in /  0.0mm 0.00 W/m2
07:31 29.8 °F /  -1.2 °C 28.4 °F /  -2.0 °C 31in /  1049.0hPa Calm   1mph /  1.6km/h 94% 0in /  0.0mm 0.00 W/m2
07:35 29.8 °F /  -1.2 °C 28.4 °F /  -2.0 °C 31in /  1049.0hPa Calm   1mph /  1.6km/h 94% 0in /  0.0mm 0.00 W/m2
07:40 30 °F /  -1.1 °C 28.6 °F /  -1.9 °C 31in /  1049.0hPa Calm   1mph /  1.6km/h 94% 0in /  0.0mm 0.00 W/m2
07:45 30.2 °F /  -1.0 °C 28.8 °F /  -1.8 °C 31in /  1049.0hPa Calm     94% 0in /  0.0mm 0.00 W/m2
07:50 30.4 °F /  -0.9 °C 28.9 °F /  -1.7 °C 31in /  1049.0hPa Calm   1mph /  1.6km/h 94% 0in /  0.0mm 0.00 W/m2
07:55 30.4 °F /  -0.9 °C 28.9 °F /  -1.7 °C 31in /  1049.0hPa Calm   1mph /  1.6km/h 94% 0in /  0.0mm 0.00 W/m2
08:00 30.6 °F /  -0.8 °C 29.1 °F /  -1.6 °C 31in /  1049.0hPa Calm   1mph /  1.6km/h 94% 0in /  0.0mm 0.00 W/m2
08:05 30.4 °F /  -0.9 °C 28.9 °F /  -1.7 °C 31in /  1049.0hPa Calm   1mph /  1.6km/h 94% 0in /  0.0mm 0.00 W/m2
08:10 30.4 °F /  -0.9 °C 28.9 °F /  -1.7 °C 31in /  1049.0hPa NW 0.9mph /  1.4km/h 1mph /  1.6km/h 94% 0in /  0.0mm 0.00 W/m2
08:15 30.4 °F /  -0.9 °C 29.1 °F /  -1.6 °C 31in /  1049.3hPa Calm     95% 0in /  0.0mm 5.00 W/m2
08:20 30.4 °F /  -0.9 °C 28.9 °F /  -1.7 °C 31in /  1049.0hPa Calm   1mph /  1.6km/h 94% 0in /  0.0mm 7.00 W/m2
08:25 30.4 °F /  -0.9 °C 29.1 °F /  -1.6 °C 31in /  1049.3hPa Calm     95% 0in /  0.0mm 7.00 W/m2
08:30 30.4 °F /  -0.9 °C 28.9 °F /  -1.7 °C 31in /  1049.3hPa Calm     94% 0in /  0.0mm 9.00 W/m2
08:35 30.4 °F /  -0.9 °C 28.9 °F /  -1.7 °C 31in /  1049.3hPa Calm   1mph /  1.6km/h 94% 0in /  0.0mm 11.00 W/m2
08:40 30.6 °F /  -0.8 °C 29.3 °F /  -1.5 °C 31in /  1049.3hPa Calm   1mph /  1.6km/h 95% 0in /  0.0mm 14.00 W/m2
08:45 30.7 °F /  -0.7 °C 29.3 °F /  -1.5 °C 31in /  1049.3hPa Calm     94% 0in /  0.0mm 23.00 W/m2
08:50 30.6 °F /  -0.8 °C 29.3 °F /  -1.5 °C 31in /  1049.3hPa Calm   1mph /  1.6km/h 95% 0in /  0.0mm 26.00 W/m2
08:55 30.9 °F /  -0.6 °C 29.5 °F /  -1.4 °C 31in /  1049.3hPa Calm   1mph /  1.6km/h 94% 0in /  0.0mm 25.00 W/m2
09:00 31.3 °F /  -0.4 °C 30 °F /  -1.1 °C 31in /  1049.3hPa Calm   1mph /  1.6km/h 95% 0in /  0.0mm 21.00 W/m2
09:05 31.3 °F /  -0.4 °C 30 °F /  -1.1 °C 31in /  1049.3hPa NNW 0.9mph /  1.4km/h 1mph /  1.6km/h 95% 0in /  0.0mm 19.00 W/m2
09:10 31.3 °F /  -0.4 °C 30 °F /  -1.1 °C 31in /  1049.3hPa Calm   1mph /  1.6km/h 95% 0in /  0.0mm 23.00 W/m2
09:15 31.6 °F /  -0.2 °C 30.4 °F /  -0.9 °C 31in /  1049.3hPa Calm     95% 0in /  0.0mm 23.00 W/m2
09:20 31.8 °F /  -0.1 °C 30.6 °F /  -0.8 °C 31in /  1049.3hPa Calm     95% 0in /  0.0mm 21.00 W/m2
09:25 31.3 °F /  -0.4 °C 30 °F /  -1.1 °C 31in /  1049.3hPa Calm     95% 0in /  0.0mm 26.00 W/m2
09:30 31.8 °F /  -0.1 °C 30.6 °F /  -0.8 °C 31in /  1049.3hPa Calm   1mph /  1.6km/h 95% 0in /  0.0mm 25.00 W/m2
09:35 31.5 °F /  -0.3 °C 30.2 °F /  -1.0 °C 31in /  1049.3hPa NNW 0.9mph /  1.4km/h 2mph /  3.2km/h 95% 0in /  0.0mm 33.00 W/m2
09:40 32.2 °F /  0.1 °C 30.9 °F /  -0.6 °C 31in /  1049.3hPa Calm     95% 0in /  0.0mm 37.00 W/m2
09:45 32.5 °F /  0.3 °C 31.3 °F /  -0.4 °C 31in /  1049.3hPa Calm   1mph /  1.6km/h 95% 0in /  0.0mm 42.00 W/m2
09:50 32.7 °F /  0.4 °C 31.5 °F /  -0.3 °C 31in /  1049.3hPa Calm     95% 0in /  0.0mm 49.00 W/m2
09:55 33.4 °F /  0.8 °C 32.2 °F /  0.1 °C 31in /  1049.3hPa Calm     95% 0in /  0.0mm 60.00 W/m2
10:00 33.6 °F /  0.9 °C 32.4 °F /  0.2 °C 31in /  1049.3hPa Calm     95% 0in /  0.0mm 69.00 W/m2
10:05 34.2 °F /  1.2 °C 32.5 °F /  0.3 °C 31in /  1049.3hPa Calm     94% 0in /  0.0mm 77.00 W/m2
10:10 34.7 °F /  1.5 °C 33.1 °F /  0.6 °C 31in /  1049.3hPa Calm   1mph /  1.6km/h 94% 0in /  0.0mm 84.00 W/m2
10:15 34.9 °F /  1.6 °C 33.3 °F /  0.7 °C 31in /  1049.3hPa Calm   1mph /  1.6km/h 94% 0in /  0.0mm 95.00 W/m2
10:20 36 °F /  2.2 °C 34.3 °F /  1.3 °C 31in /  1049.3hPa Calm   1mph /  1.6km/h 94% 0in /  0.0mm 105.00 W/m2
10:25 36.7 °F /  2.6 °C 35.1 °F /  1.7 °C 31in /  1049.3hPa Calm   1mph /  1.6km/h 94% 0in /  0.0mm 114.00 W/m2
10:30 36.3 °F /  2.4 °C 34.7 °F /  1.5 °C 31in /  1049.3hPa Calm     94% 0in /  0.0mm 125.00 W/m2
10:35 36.9 °F /  2.7 °C 35.1 °F /  1.7 °C 31in /  1049.3hPa Calm     93% 0in /  0.0mm 137.00 W/m2
10:40 37.6 °F /  3.1 °C 35.8 °F /  2.1 °C 31in /  1049.3hPa Calm   1mph /  1.6km/h 93% 0in /  0.0mm 151.00 W/m2
10:45 38.3 °F /  3.5 °C 36.1 °F /  2.3 °C 31in /  1049.3hPa Calm     92% 0in /  0.0mm 162.00 W/m2
10:50 39.7 °F /  4.3 °C 37.4 °F /  3.0 °C 31in /  1049.3hPa Calm     91% 0in /  0.0mm 167.00 W/m2
10:55 39.2 °F /  4.0 °C 36.3 °F /  2.4 °C 31in /  1049.3hPa Calm   1mph /  1.6km/h 89% 0in /  0.0mm 171.00 W/m2
11:00 39.2 °F /  4.0 °C 36 °F /  2.2 °C 31in /  1049.3hPa NNW 0.9mph /  1.4km/h 2mph /  3.2km/h 88% 0in /  0.0mm 172.00 W/m2
11:05 39 °F /  3.9 °C 35.8 °F /  2.1 °C 31in /  1049.3hPa NNW 0.9mph /  1.4km/h 2mph /  3.2km/h 88% 0in /  0.0mm 178.00 W/m2
11:10 39.4 °F /  4.1 °C 36.1 °F /  2.3 °C 31in /  1049.0hPa NW 2.9mph /  4.7km/h 3mph /  4.8km/h 88% 0in /  0.0mm 183.00 W/m2
11:15 39.7 °F /  4.3 °C 36.5 °F /  2.5 °C 31in /  1049.0hPa West 4mph /  6.4km/h 4mph /  6.4km/h 88% 0in /  0.0mm 188.00 W/m2
11:20 39.4 °F /  4.1 °C 35.8 °F /  2.1 °C 31in /  1049.0hPa WNW 0.9mph /  1.4km/h 4mph /  6.4km/h 87% 0in /  0.0mm 193.00 W/m2
11:25 39.7 °F /  4.3 °C 36.1 °F /  2.3 °C 31in /  1049.0hPa West 4.9mph /  7.9km/h 5mph /  8.0km/h 87% 0in /  0.0mm 202.00 W/m2
11:30 39.7 °F /  4.3 °C 36.1 °F /  2.3 °C 31in /  1048.6hPa West 4mph /  6.4km/h 5mph /  8.0km/h 87% 0in /  0.0mm 207.00 W/m2
11:35 39.7 °F /  4.3 °C 36.1 °F /  2.3 °C 31in /  1048.6hPa West 4mph /  6.4km/h 5mph /  8.0km/h 87% 0in /  0.0mm 213.00 W/m2
11:40 40.3 °F /  4.6 °C 36.7 °F /  2.6 °C 31in /  1048.6hPa West 2mph /  3.2km/h 4mph /  6.4km/h 87% 0in /  0.0mm 216.00 W/m2
11:45 40.5 °F /  4.7 °C 36.9 °F /  2.7 °C 31in /  1048.6hPa WNW 4mph /  6.4km/h 4mph /  6.4km/h 87% 0in /  0.0mm 221.00 W/m2
11:50 40.3 °F /  4.6 °C 36.7 °F /  2.6 °C 31in /  1048.6hPa Calm   4mph /  6.4km/h 87% 0in /  0.0mm 223.00 W/m2
11:55 41.7 °F /  5.4 °C 38.1 °F /  3.4 °C 31in /  1048.6hPa WNW 2mph /  3.2km/h 2mph /  3.2km/h 87% 0in /  0.0mm 227.00 W/m2
12:00 42.1 °F /  5.6 °C 38.1 °F /  3.4 °C 31in /  1048.6hPa West 2mph /  3.2km/h 4mph /  6.4km/h 86% 0in /  0.0mm 234.00 W/m2
12:05 41.7 °F /  5.4 °C 37.6 °F /  3.1 °C 31in /  1048.3hPa West 2.9mph /  4.7km/h 6mph /  9.7km/h 85% 0in /  0.0mm 237.00 W/m2
12:10 41.4 °F /  5.2 °C 37.2 °F /  2.9 °C 31in /  1048.3hPa WNW 4.9mph /  7.9km/h 7mph /  11.3km/h 85% 0in /  0.0mm 237.00 W/m2
12:15 42.1 °F /  5.6 °C 38.1 °F /  3.4 °C 31in /  1048.3hPa West 2.9mph /  4.7km/h 5mph /  8.0km/h 86% 0in /  0.0mm 244.00 W/m2
12:20 42.3 °F /  5.7 °C 38.3 °F /  3.5 °C 31in /  1048.0hPa NW 0.9mph /  1.4km/h 4mph /  6.4km/h 86% 0.01in /  0.3mm 246.00 W/m2
12:25 42.3 °F /  5.7 °C 38.3 °F /  3.5 °C 31in /  1048.0hPa WNW 2mph /  3.2km/h 8mph /  12.9km/h 86% 0.01in /  0.3mm 251.00 W/m2
12:30 42.8 °F /  6.0 °C 38.8 °F /  3.8 °C 31in /  1048.0hPa NW 6mph /  9.7km/h 6mph /  9.7km/h 86% 0.01in /  0.3mm 253.00 W/m2
12:35 43 °F /  6.1 °C 38.8 °F /  3.8 °C 31in /  1048.0hPa WNW 2.9mph /  4.7km/h 6mph /  9.7km/h 85% 0.01in /  0.3mm 255.00 W/m2
12:40 43 °F /  6.1 °C 38.8 °F /  3.8 °C 31in /  1048.0hPa West 2.9mph /  4.7km/h 6mph /  9.7km/h 85% 0.01in /  0.3mm 257.00 W/m2
12:45 43.2 °F /  6.2 °C 39 °F /  3.9 °C 31in /  1048.0hPa WNW 4.9mph /  7.9km/h 7mph /  11.3km/h 85% 0.01in /  0.3mm 251.00 W/m2
12:50 43.5 °F /  6.4 °C 39.4 °F /  4.1 °C 30.9in /  1047.6hPa WNW 2.9mph /  4.7km/h 4mph /  6.4km/h 85% 0.01in /  0.3mm 239.00 W/m2
12:55 43.5 °F /  6.4 °C 39 °F /  3.9 °C 30.9in /  1047.6hPa West 4.9mph /  7.9km/h 8mph /  12.9km/h 84% 0.01in /  0.3mm 243.00 W/m2
13:00 43.5 °F /  6.4 °C 39 °F /  3.9 °C 30.9in /  1047.6hPa West 4mph /  6.4km/h 6mph /  9.7km/h 84% 0.01in /  0.3mm 239.00 W/m2
13:05 44.2 °F /  6.8 °C 39.7 °F /  4.3 °C 30.9in /  1047.6hPa West 2mph /  3.2km/h 5mph /  8.0km/h 84% 0.01in /  0.3mm 223.00 W/m2
13:10 44.4 °F /  6.9 °C 39.6 °F /  4.2 °C 30.9in /  1047.6hPa West 4mph /  6.4km/h 5mph /  8.0km/h 83% 0.01in /  0.3mm 218.00 W/m2
13:15 44.2 °F /  6.8 °C 39.4 °F /  4.1 °C 30.9in /  1047.6hPa West 2.9mph /  4.7km/h 4mph /  6.4km/h 83% 0.01in /  0.3mm 213.00 W/m2
13:20 44.8 °F /  7.1 °C 39.9 °F /  4.4 °C 30.9in /  1047.3hPa West 4.9mph /  7.9km/h 6mph /  9.7km/h 83% 0in /  0.0mm 213.00 W/m2
13:25 45 °F /  7.2 °C 39.7 °F /  4.3 °C 30.9in /  1047.3hPa West 4.9mph /  7.9km/h 7mph /  11.3km/h 82% 0in /  0.0mm 197.00 W/m2
13:30 45 °F /  7.2 °C 39.6 °F /  4.2 °C 30.9in /  1047.3hPa WNW 8.1mph /  13.0km/h 8mph /  12.9km/h 81% 0in /  0.0mm 200.00 W/m2
13:35 45.1 °F /  7.3 °C 39.7 °F /  4.3 °C 30.9in /  1047.3hPa West 4mph /  6.4km/h 5mph /  8.0km/h 81% 0in /  0.0mm 202.00 W/m2
13:40 45.5 °F /  7.5 °C 39.7 °F /  4.3 °C 30.9in /  1047.3hPa NW 2.9mph /  4.7km/h 4mph /  6.4km/h 80% 0in /  0.0mm 211.00 W/m2
13:45 45.5 °F /  7.5 °C 39.4 °F /  4.1 °C 30.9in /  1047.3hPa WNW 2mph /  3.2km/h 5mph /  8.0km/h 79% 0in /  0.0mm 213.00 W/m2
13:50 45.7 °F /  7.6 °C 39.6 °F /  4.2 °C 30.9in /  1047.0hPa NW 4mph /  6.4km/h 5mph /  8.0km/h 79% 0in /  0.0mm 207.00 W/m2
13:55 46 °F /  7.8 °C 39.6 °F /  4.2 °C 30.9in /  1047.0hPa NW 4mph /  6.4km/h 7mph /  11.3km/h 78% 0in /  0.0mm 202.00 W/m2
14:00 45.9 °F /  7.7 °C 39.4 °F /  4.1 °C 30.9in /  1047.0hPa West 4mph /  6.4km/h 7mph /  11.3km/h 78% 0in /  0.0mm 193.00 W/m2
14:05 45.9 °F /  7.7 °C 39 °F /  3.9 °C 30.9in /  1047.0hPa WNW 4mph /  6.4km/h 7mph /  11.3km/h 77% 0in /  0.0mm 179.00 W/m2
14:10 46 °F /  7.8 °C 39.6 °F /  4.2 °C 30.9in /  1047.0hPa WSW 4mph /  6.4km/h 5mph /  8.0km/h 78% 0in /  0.0mm 172.00 W/m2
14:15 46.4 °F /  8.0 °C 39.6 °F /  4.2 °C 30.9in /  1046.6hPa WSW 2.9mph /  4.7km/h 6mph /  9.7km/h 77% 0in /  0.0mm 165.00 W/m2
14:20 46.4 °F /  8.0 °C 39.6 °F /  4.2 °C 30.9in /  1047.0hPa WNW 2mph /  3.2km/h 5mph /  8.0km/h 77% 0in /  0.0mm 149.00 W/m2
14:25 46.2 °F /  7.9 °C 39.4 °F /  4.1 °C 30.9in /  1046.6hPa WNW 0.9mph /  1.4km/h 4mph /  6.4km/h 77% 0in /  0.0mm 148.00 W/m2
14:30 46.6 °F /  8.1 °C 39.7 °F /  4.3 °C 30.9in /  1046.6hPa WNW 2mph /  3.2km/h 3mph /  4.8km/h 77% 0in /  0.0mm 148.00 W/m2
14:35 46.4 °F /  8.0 °C 39.6 °F /  4.2 °C 30.9in /  1046.6hPa WSW 6mph /  9.7km/h 6mph /  9.7km/h 77% 0in /  0.0mm 142.00 W/m2
14:40 46.2 °F /  7.9 °C 39.4 °F /  4.1 °C 30.9in /  1046.6hPa West 0.9mph /  1.4km/h 5mph /  8.0km/h 77% 0in /  0.0mm 137.00 W/m2
14:45 46.6 °F /  8.1 °C 39.7 °F /  4.3 °C 30.9in /  1046.6hPa West 2.9mph /  4.7km/h 5mph /  8.0km/h 77% 0in /  0.0mm 130.00 W/m2
14:50 46 °F /  7.8 °C 39.2 °F /  4.0 °C 30.9in /  1046.6hPa West 4mph /  6.4km/h 5mph /  8.0km/h 77% 0in /  0.0mm 121.00 W/m2
14:55 45.7 °F /  7.6 °C 38.8 °F /  3.8 °C 30.9in /  1046.6hPa West 4.9mph /  7.9km/h 7mph /  11.3km/h 77% 0in /  0.0mm 111.00 W/m2
15:00 45.9 °F /  7.7 °C 39 °F /  3.9 °C 30.9in /  1046.6hPa WNW 6mph /  9.7km/h 6mph /  9.7km/h 77% 0in /  0.0mm 104.00 W/m2
15:05 45.7 °F /  7.6 °C 38.8 °F /  3.8 °C 30.9in /  1046.6hPa WNW 2mph /  3.2km/h 5mph /  8.0km/h 77% 0in /  0.0mm 97.00 W/m2
15:10 45.9 °F /  7.7 °C 39.4 °F /  4.1 °C 30.9in /  1046.6hPa West 2mph /  3.2km/h 5mph /  8.0km/h 78% 0in /  0.0mm 90.00 W/m2
15:15 45.9 °F /  7.7 °C 39.4 °F /  4.1 °C 30.9in /  1046.6hPa West 2.9mph /  4.7km/h 4mph /  6.4km/h 78% 0in /  0.0mm 83.00 W/m2
15:20 45.9 °F /  7.7 °C 39.4 °F /  4.1 °C 30.9in /  1046.6hPa West 2mph /  3.2km/h 4mph /  6.4km/h 78% 0in /  0.0mm 72.00 W/m2
15:25 45.5 °F /  7.5 °C 38.7 °F /  3.7 °C 30.9in /  1046.6hPa WNW 4.9mph /  7.9km/h 5mph /  8.0km/h 77% 0in /  0.0mm 63.00 W/m2
15:30 45.3 °F /  7.4 °C 38.1 °F /  3.4 °C 30.9in /  1046.6hPa West 2mph /  3.2km/h 5mph /  8.0km/h 76% 0in /  0.0mm 56.00 W/m2
15:35 45.3 °F /  7.4 °C 38.1 °F /  3.4 °C 30.9in /  1046.3hPa NW 2mph /  3.2km/h 3mph /  4.8km/h 76% 0in /  0.0mm 47.00 W/m2
15:40 45.1 °F /  7.3 °C 37.9 °F /  3.3 °C 30.9in /  1046.3hPa WNW 4mph /  6.4km/h 5mph /  8.0km/h 76% 0in /  0.0mm 40.00 W/m2
15:45 45 °F /  7.2 °C 38.1 °F /  3.4 °C 30.9in /  1046.3hPa WNW 2.9mph /  4.7km/h 4mph /  6.4km/h 77% 0in /  0.0mm 33.00 W/m2
15:50 45.1 °F /  7.3 °C 38.3 °F /  3.5 °C 30.9in /  1046.3hPa WNW 2mph /  3.2km/h 2mph /  3.2km/h 77% 0in /  0.0mm 26.00 W/m2
15:55 45.1 °F /  7.3 °C 38.7 °F /  3.7 °C 30.9in /  1046.6hPa WNW 0.9mph /  1.4km/h 4mph /  6.4km/h 78% 0in /  0.0mm 23.00 W/m2
16:00 45.3 °F /  7.4 °C 38.8 °F /  3.8 °C 30.9in /  1046.6hPa WNW 0.9mph /  1.4km/h 2mph /  3.2km/h 78% 0in /  0.0mm 19.00 W/m2
16:05 45.7 °F /  7.6 °C 39.2 °F /  4.0 °C 30.9in /  1046.3hPa WNW 2mph /  3.2km/h 2mph /  3.2km/h 78% 0in /  0.0mm 18.00 W/m2
16:10 45.3 °F /  7.4 °C 38.8 °F /  3.8 °C 30.9in /  1046.3hPa Calm   2mph /  3.2km/h 78% 0in /  0.0mm 14.00 W/m2
16:15 45.1 °F /  7.3 °C 39 °F /  3.9 °C 30.9in /  1046.3hPa WNW 0.9mph /  1.4km/h 2mph /  3.2km/h 79% 0in /  0.0mm 12.00 W/m2
16:20 45 °F /  7.2 °C 38.8 °F /  3.8 °C 30.9in /  1046.3hPa Calm   2mph /  3.2km/h 79% 0in /  0.0mm 11.00 W/m2
16:25 44.8 °F /  7.1 °C 38.7 °F /  3.7 °C 30.9in /  1046.3hPa Calm   1mph /  1.6km/h 79% 0in /  0.0mm 9.00 W/m2
16:30 44.2 °F /  6.8 °C 38.5 °F /  3.6 °C 30.9in /  1046.3hPa Calm     80% 0in /  0.0mm 7.00 W/m2
16:35 43.9 °F /  6.6 °C 38.1 °F /  3.4 °C 30.9in /  1046.3hPa Calm   1mph /  1.6km/h 80% 0in /  0.0mm 5.00 W/m2
16:40 43.2 °F /  6.2 °C 37.8 °F /  3.2 °C 30.9in /  1046.3hPa WNW 3mph /  4.8km/h 3mph /  4.8km/h 81% 0in /  0.0mm 0.00 W/m2
16:45 42.4 °F /  5.8 °C 37.4 °F /  3.0 °C 30.9in /  1046.3hPa WNW 2mph /  3.2km/h 2mph /  3.2km/h 82% 0in /  0.0mm 0.00 W/m2
16:50 42.3 °F /  5.7 °C 37.4 °F /  3.0 °C 30.9in /  1046.3hPa Calm     83% 0in /  0.0mm 0.00 W/m2
16:55 41.5 °F /  5.3 °C 36.7 °F /  2.6 °C 30.9in /  1046.3hPa WNW 2mph /  3.2km/h 2mph /  3.2km/h 83% 0in /  0.0mm 0.00 W/m2
17:00 40.8 °F /  4.9 °C 36.3 °F /  2.4 °C 30.9in /  1046.3hPa WNW 2mph /  3.2km/h 3mph /  4.8km/h 84% 0in /  0.0mm 0.00 W/m2
17:05 40.5 °F /  4.7 °C 36.3 °F /  2.4 °C 30.9in /  1046.3hPa WNW 0.9mph /  1.4km/h 2mph /  3.2km/h 85% 0in /  0.0mm 0.00 W/m2
17:10 39.9 °F /  4.4 °C 35.8 °F /  2.1 °C 30.9in /  1046.3hPa Calm   2mph /  3.2km/h 85% 0in /  0.0mm 0.00 W/m2
17:15 39.4 °F /  4.1 °C 35.6 °F /  2.0 °C 30.9in /  1046.3hPa Calm   1mph /  1.6km/h 86% 0in /  0.0mm 0.00 W/m2
17:20 39.4 °F /  4.1 °C 35.6 °F /  2.0 °C 30.9in /  1046.3hPa Calm     86% 0in /  0.0mm 0.00 W/m2
17:25 38.8 °F /  3.8 °C 35.1 °F /  1.7 °C 30.9in /  1046.3hPa Calm   2mph /  3.2km/h 86% 0in /  0.0mm 0.00 W/m2
17:30 38.8 °F /  3.8 °C 35.2 °F /  1.8 °C 30.9in /  1046.3hPa Calm   1mph /  1.6km/h 87% 0in /  0.0mm 0.00 W/m2
17:35 38.8 °F /  3.8 °C 35.2 °F /  1.8 °C 30.9in /  1046.3hPa WNW 0.9mph /  1.4km/h 1mph /  1.6km/h 87% 0in /  0.0mm 0.00 W/m2
17:40 38.8 °F /  3.8 °C 35.6 °F /  2.0 °C 30.9in /  1046.3hPa Calm     88% 0in /  0.0mm 0.00 W/m2
17:45 38.1 °F /  3.4 °C 34.9 °F /  1.6 °C 30.9in /  1046.3hPa WNW 0.9mph /  1.4km/h 3mph /  4.8km/h 88% 0in /  0.0mm 0.00 W/m2
17:50 37.9 °F /  3.3 °C 34.7 °F /  1.5 °C 30.9in /  1046.3hPa Calm   2mph /  3.2km/h 88% 0in /  0.0mm 0.00 W/m2
17:55 37.9 °F /  3.3 °C 34.7 °F /  1.5 °C 30.9in /  1046.3hPa Calm     88% 0in /  0.0mm 0.00 W/m2
18:00 37.9 °F /  3.3 °C 35.1 °F /  1.7 °C 30.9in /  1045.9hPa Calm   1mph /  1.6km/h 89% 0in /  0.0mm 0.00 W/m2
18:05 37.9 °F /  3.3 °C 35.1 °F /  1.7 °C 30.9in /  1045.9hPa Calm     89% 0in /  0.0mm 0.00 W/m2
18:10 37.9 °F /  3.3 °C 35.1 °F /  1.7 °C 30.9in /  1046.3hPa Calm   1mph /  1.6km/h 89% 0in /  0.0mm 0.00 W/m2
18:15 37.6 °F /  3.1 °C 34.7 °F /  1.5 °C 30.9in /  1045.9hPa Calm     89% 0in /  0.0mm 0.00 W/m2
18:20 37.6 °F /  3.1 °C 34.7 °F /  1.5 °C 30.9in /  1045.9hPa Calm   1mph /  1.6km/h 89% 0in /  0.0mm 0.00 W/m2
18:25 37.4 °F /  3.0 °C 34.5 °F /  1.4 °C 30.9in /  1045.9hPa Calm   1mph /  1.6km/h 89% 0in /  0.0mm 0.00 W/m2
18:30 37.2 °F /  2.9 °C 34.3 °F /  1.3 °C 30.9in /  1046.3hPa WNW 0.9mph /  1.4km/h 1mph /  1.6km/h 89% 0in /  0.0mm 0.00 W/m2
18:35 37 °F /  2.8 °C 34.3 °F /  1.3 °C 30.9in /  1045.9hPa WNW 0.9mph /  1.4km/h 1mph /  1.6km/h 90% 0in /  0.0mm 0.00 W/m2
18:40 36.7 °F /  2.6 °C 33.8 °F /  1.0 °C 30.9in /  1045.9hPa Calm   1mph /  1.6km/h 89% 0in /  0.0mm 0.00 W/m2
18:45 36.7 °F /  2.6 °C 34 °F /  1.1 °C 30.9in /  1045.9hPa Calm     90% 0in /  0.0mm 0.00 W/m2
18:50 36.5 °F /  2.5 °C 33.8 °F /  1.0 °C 30.9in /  1045.9hPa WNW 0.9mph /  1.4km/h 1mph /  1.6km/h 90% 0in /  0.0mm 0.00 W/m2
18:55 36.3 °F /  2.4 °C 33.6 °F /  0.9 °C 30.9in /  1045.9hPa Calm     90% 0in /  0.0mm 0.00 W/m2
19:00 36.1 °F /  2.3 °C 33.4 °F /  0.8 °C 30.9in /  1045.9hPa Calm     90% 0in /  0.0mm 0.00 W/m2
19:05 36 °F /  2.2 °C 33.3 °F /  0.7 °C 30.9in /  1045.9hPa Calm     90% 0in /  0.0mm 0.00 W/m2
19:10 35.8 °F /  2.1 °C 33.1 °F /  0.6 °C 30.9in /  1045.9hPa Calm   1mph /  1.6km/h 90% 0in /  0.0mm 0.00 W/m2
19:15 35.8 °F /  2.1 °C 33.1 °F /  0.6 °C 30.9in /  1045.9hPa Calm   1mph /  1.6km/h 90% 0in /  0.0mm 0.00 W/m2
19:20 36 °F /  2.2 °C 33.3 °F /  0.7 °C 30.9in /  1045.9hPa Calm   1mph /  1.6km/h 90% 0in /  0.0mm 0.00 W/m2
19:25 35.6 °F /  2.0 °C 33.3 °F /  0.7 °C 30.9in /  1045.9hPa Calm   1mph /  1.6km/h 91% 0in /  0.0mm 0.00 W/m2
19:30 35.4 °F /  1.9 °C 33.1 °F /  0.6 °C 30.9in /  1045.9hPa Calm   1mph /  1.6km/h 91% 0in /  0.0mm 0.00 W/m2
19:35 35.2 °F /  1.8 °C 32.9 °F /  0.5 °C 30.9in /  1045.6hPa Calm   1mph /  1.6km/h 91% 0in /  0.0mm 0.00 W/m2
19:40 35.2 °F /  1.8 °C 32.9 °F /  0.5 °C 30.9in /  1045.9hPa Calm   1mph /  1.6km/h 91% 0in /  0.0mm 0.00 W/m2
19:45 35.2 °F /  1.8 °C 32.9 °F /  0.5 °C 30.9in /  1045.9hPa Calm   1mph /  1.6km/h 91% 0in /  0.0mm 0.00 W/m2
19:50 35.2 °F /  1.8 °C 32.9 °F /  0.5 °C 30.9in /  1045.9hPa Calm     91% 0in /  0.0mm 0.00 W/m2
19:55 35.1 °F /  1.7 °C 32.7 °F /  0.4 °C 30.9in /  1045.9hPa Calm     91% 0in /  0.0mm 0.00 W/m2
20:00 34.7 °F /  1.5 °C 32.4 °F /  0.2 °C 30.9in /  1045.9hPa WNW 0.9mph /  1.4km/h 2mph /  3.2km/h 91% 0in /  0.0mm 0.00 W/m2
20:05 34.7 °F /  1.5 °C 32.4 °F /  0.2 °C 30.9in /  1045.6hPa WNW 2mph /  3.2km/h 3mph /  4.8km/h 91% 0in /  0.0mm 0.00 W/m2
20:10 35.1 °F /  1.7 °C 32.7 °F /  0.4 °C 30.9in /  1045.6hPa Calm   2mph /  3.2km/h 91% 0in /  0.0mm 0.00 W/m2
20:15 35.1 °F /  1.7 °C 32.7 °F /  0.4 °C 30.9in /  1045.6hPa Calm     91% 0in /  0.0mm 0.00 W/m2
20:20 34.9 °F /  1.6 °C 32.7 °F /  0.4 °C 30.9in /  1045.6hPa Calm     92% 0in /  0.0mm 0.00 W/m2
20:26 34.5 °F /  1.4 °C 32.4 °F /  0.2 °C 30.9in /  1045.6hPa Calm     92% 0in /  0.0mm 0.00 W/m2
20:30 34.5 °F /  1.4 °C 32.4 °F /  0.2 °C 30.9in /  1045.6hPa Calm     92% 0in /  0.0mm 0.00 W/m2
20:35 34.3 °F /  1.3 °C 32 °F /  0.0 °C 30.9in /  1045.6hPa Calm     91% 0in /  0.0mm 0.00 W/m2
20:40 34.2 °F /  1.2 °C 32 °F /  0.0 °C 30.9in /  1045.3hPa Calm     92% 0in /  0.0mm 0.00 W/m2
20:45 34.2 °F /  1.2 °C 32 °F /  0.0 °C 30.9in /  1045.3hPa Calm     92% 0in /  0.0mm 0.00 W/m2
20:50 34.2 °F /  1.2 °C 32 °F /  0.0 °C 30.9in /  1045.3hPa Calm     92% 0in /  0.0mm 0.00 W/m2
20:55 34 °F /  1.1 °C 31.8 °F /  -0.1 °C 30.9in /  1045.3hPa Calm   1mph /  1.6km/h 92% 0in /  0.0mm 0.00 W/m2
21:00 34 °F /  1.1 °C 31.8 °F /  -0.1 °C 30.9in /  1045.3hPa WNW 2mph /  3.2km/h 3mph /  4.8km/h 92% 0in /  0.0mm 0.00 W/m2
21:05 34 °F /  1.1 °C 31.8 °F /  -0.1 °C 30.9in /  1045.3hPa WNW 0.9mph /  1.4km/h 2mph /  3.2km/h 92% 0in /  0.0mm 0.00 W/m2
21:10 33.8 °F /  1.0 °C 31.6 °F /  -0.2 °C 30.9in /  1044.9hPa Calm   1mph /  1.6km/h 92% 0in /  0.0mm 0.00 W/m2
21:15 33.6 °F /  0.9 °C 31.5 °F /  -0.3 °C 30.9in /  1045.3hPa Calm     92% 0in /  0.0mm 0.00 W/m2
21:20 33.8 °F /  1.0 °C 31.6 °F /  -0.2 °C 30.9in /  1045.3hPa Calm     92% 0in /  0.0mm 0.00 W/m2
21:26 34 °F /  1.1 °C 31.8 °F /  -0.1 °C 30.9in /  1045.3hPa Calm     92% 0in /  0.0mm 0.00 W/m2
21:30 33.8 °F /  1.0 °C 31.6 °F /  -0.2 °C 30.9in /  1044.9hPa Calm   1mph /  1.6km/h 92% 0in /  0.0mm 0.00 W/m2
21:35 33.6 °F /  0.9 °C 31.5 °F /  -0.3 °C 30.9in /  1045.3hPa Calm   1mph /  1.6km/h 92% 0in /  0.0mm 0.00 W/m2
21:40 33.4 °F /  0.8 °C 31.3 °F /  -0.4 °C 30.9in /  1045.3hPa Calm   2mph /  3.2km/h 92% 0in /  0.0mm 0.00 W/m2
21:45 33.1 °F /  0.6 °C 31.1 °F /  -0.5 °C 30.9in /  1045.3hPa Calm   1mph /  1.6km/h 92% 0in /  0.0mm 0.00 W/m2
21:50 33.3 °F /  0.7 °C 31.1 °F /  -0.5 °C 30.9in /  1045.3hPa Calm     92% 0in /  0.0mm 0.00 W/m2
21:55 33.1 °F /  0.6 °C 31.1 °F /  -0.5 °C 30.9in /  1045.3hPa Calm     92% 0in /  0.0mm 0.00 W/m2
22:00 33.1 °F /  0.6 °C 31.1 °F /  -0.5 °C 30.9in /  1045.3hPa Calm   1mph /  1.6km/h 92% 0in /  0.0mm 0.00 W/m2
22:05 32.9 °F /  0.5 °C 30.9 °F /  -0.6 °C 30.9in /  1044.9hPa Calm   1mph /  1.6km/h 92% 0in /  0.0mm 0.00 W/m2
22:10 32.9 °F /  0.5 °C 30.9 °F /  -0.6 °C 30.9in /  1044.9hPa WNW 0.9mph /  1.4km/h 1mph /  1.6km/h 92% 0in /  0.0mm 0.00 W/m2
22:15 32.9 °F /  0.5 °C 30.9 °F /  -0.6 °C 30.9in /  1044.9hPa WNW 0.9mph /  1.4km/h 2mph /  3.2km/h 92% 0in /  0.0mm 0.00 W/m2
22:20 32.9 °F /  0.5 °C 30.9 °F /  -0.6 °C 30.9in /  1044.9hPa WNW 0.9mph /  1.4km/h 1mph /  1.6km/h 92% 0in /  0.0mm 0.00 W/m2
22:25 32.9 °F /  0.5 °C 30.9 °F /  -0.6 °C 30.9in /  1044.9hPa WNW 0.9mph /  1.4km/h 2mph /  3.2km/h 92% 0in /  0.0mm 0.00 W/m2
22:30 32.7 °F /  0.4 °C 30.9 °F /  -0.6 °C 30.9in /  1044.9hPa Calm   1mph /  1.6km/h 93% 0in /  0.0mm 0.00 W/m2
22:35 32.7 °F /  0.4 °C 30.9 °F /  -0.6 °C 30.9in /  1044.9hPa WNW 0.9mph /  1.4km/h 2mph /  3.2km/h 93% 0in /  0.0mm 0.00 W/m2
22:40 32.7 °F /  0.4 °C 30.9 °F /  -0.6 °C 30.9in /  1044.9hPa WNW 2mph /  3.2km/h 2mph /  3.2km/h 93% 0in /  0.0mm 0.00 W/m2
22:45 32.4 °F /  0.2 °C 30.6 °F /  -0.8 °C 30.9in /  1044.9hPa Calm   1mph /  1.6km/h 93% 0in /  0.0mm 0.00 W/m2
22:50 32.2 °F /  0.1 °C 30.4 °F /  -0.9 °C 30.9in /  1045.3hPa Calm   1mph /  1.6km/h 93% 0in /  0.0mm 0.00 W/m2
22:55 32.2 °F /  0.1 °C 30.4 °F /  -0.9 °C 30.9in /  1044.9hPa WNW 0.9mph /  1.4km/h 2mph /  3.2km/h 93% 0in /  0.0mm 0.00 W/m2
23:00 32.2 °F /  0.1 °C 30.4 °F /  -0.9 °C 30.9in /  1044.9hPa Calm   1mph /  1.6km/h 93% 0in /  0.0mm 0.00 W/m2
23:05 32.4 °F /  0.2 °C 30.6 °F /  -0.8 °C 30.9in /  1044.9hPa Calm   1mph /  1.6km/h 93% 0in /  0.0mm 0.00 W/m2
23:10 32.4 °F /  0.2 °C 30.6 °F /  -0.8 °C 30.9in /  1044.9hPa Calm     93% 0in /  0.0mm 0.00 W/m2
23:15 32.2 °F /  0.1 °C 30.4 °F /  -0.9 °C 30.9in /  1044.9hPa Calm     93% 0in /  0.0mm 0.00 W/m2
23:20 32.2 °F /  0.1 °C 30.4 °F /  -0.9 °C 30.9in /  1044.9hPa Calm   1mph /  1.6km/h 93% 0in /  0.0mm 0.00 W/m2
23:25 32.2 °F /  0.1 °C 30.4 °F /  -0.9 °C 30.9in /  1044.9hPa WNW 0.9mph /  1.4km/h 1mph /  1.6km/h 93% 0in /  0.0mm 0.00 W/m2
23:30 32.2 °F /  0.1 °C 30.4 °F /  -0.9 °C 30.9in /  1044.9hPa WNW 0.9mph /  1.4km/h 1mph /  1.6km/h 93% 0in /  0.0mm 0.00 W/m2
23:35 32 °F /  0.0 °C 30.2 °F /  -1.0 °C 30.9in /  1044.9hPa WNW 0.9mph /  1.4km/h 1mph /  1.6km/h 93% 0in /  0.0mm 0.00 W/m2
23:40 32 °F /  0.0 °C 30.2 °F /  -1.0 °C 30.9in /  1044.9hPa Calm   1mph /  1.6km/h 93% 0in /  0.0mm 0.00 W/m2
23:45 32 °F /  0.0 °C 30.2 °F /  -1.0 °C 30.9in /  1044.9hPa Calm   1mph /  1.6km/h 93% 0in /  0.0mm 0.00 W/m2
23:50 31.8 °F /  -0.1 °C 30 °F /  -1.1 °C 30.9in /  1044.9hPa Calm   1mph /  1.6km/h 93% 0in /  0.0mm 0.00 W/m2
23:55 31.6 °F /  -0.2 °C 29.8 °F /  -1.2 °C 30.9in /  1044.9hPa Calm   1mph /  1.6km/h 93% 0in /  0.0mm 0.00 W/m2